Time;durP1;ratioP1;P1;durP2;ratioP2;P2;SDS_P1;SDS_P2;PMS_P1;PMS_P2;Temp;Humidity;BMP_temperature;BMP_pressure;BME280_temperature;BME280_humidity;BME280_pressure;Samples;Min_cycle;Max_cycle;Signal;HPM_P1;HPM_P2
2021/10/27 00:01:07;;;;;;;15.63;7.60;;;12.30;99.90;;;;;;5014676;28;20471;-86
2021/10/27 00:03:33;;;;;;;10.82;7.57;;;12.20;99.90;;;;;;5014693;28;20478;-83
2021/10/27 00:05:59;;;;;;;14.60;7.75;;;12.30;99.90;;;;;;5014760;28;20030;-86
2021/10/27 00:08:25;;;;;;;19.27;8.85;;;12.60;99.90;;;;;;5014470;28;20168;-86
2021/10/27 00:10:51;;;;;;;15.35;7.53;;;12.70;99.90;;;;;;5025936;28;20045;-84
2021/10/27 00:13:17;;;;;;;14.13;8.25;;;12.60;99.90;;;;;;5014516;28;20029;-85
2021/10/27 00:15:43;;;;;;;18.20;7.95;;;12.60;99.90;;;;;;5013539;28;20030;-85
2021/10/27 00:18:09;;;;;;;17.77;7.68;;;12.50;99.90;;;;;;5013828;28;20368;-86
2021/10/27 00:20:35;;;;;;;12.02;7.55;;;12.50;99.90;;;;;;5016621;28;20042;-87
2021/10/27 00:23:01;;;;;;;15.45;8.07;;;12.50;99.90;;;;;;5021563;28;20056;-87
2021/10/27 00:25:27;;;;;;;13.85;7.65;;;12.40;99.90;;;;;;5025320;28;20052;-85
2021/10/27 00:27:52;;;;;;;12.93;7.63;;;12.40;99.90;;;;;;5014478;28;20092;-84
2021/10/27 00:30:18;;;;;;;15.02;7.97;;;12.30;99.90;;;;;;5022228;28;20030;-86
2021/10/27 00:32:44;;;;;;;19.35;7.68;;;12.30;99.90;;;;;;5013897;28;20046;-85
2021/10/27 00:35:10;;;;;;;17.33;7.95;;;12.30;99.90;;;;;;5017078;28;20022;-85
2021/10/27 00:37:36;;;;;;;12.45;7.22;;;12.40;99.90;;;;;;5013923;28;20041;-85
2021/10/27 00:40:03;;;;;;;14.73;8.00;;;12.40;99.90;;;;;;5020950;28;20041;-86
2021/10/27 00:42:29;;;;;;;15.70;7.38;;;12.40;99.90;;;;;;5014995;28;20474;-86
2021/10/27 00:44:54;;;;;;;12.07;6.90;;;12.40;99.90;;;;;;5015735;28;20594;-82
2021/10/27 00:47:21;;;;;;;14.07;8.38;;;12.40;99.90;;;;;;5013864;28;20061;-86
2021/10/27 00:49:47;;;;;;;13.80;6.90;;;12.30;99.90;;;;;;5016434;28;20030;-85
2021/10/27 00:52:15;;;;;;;11.82;7.25;;;12.30;99.90;;;;;;5013674;28;20569;-86
2021/10/27 00:54:43;;;;;;;11.85;7.70;;;12.30;99.90;;;;;;5014488;28;20213;-84
2021/10/27 00:57:11;;;;;;;12.50;7.45;;;12.30;99.90;;;;;;5013815;28;20044;-86
2021/10/27 00:59:40;;;;;;;17.55;7.05;;;12.30;99.90;;;;;;5013768;28;20037;-86
2021/10/27 01:02:06;;;;;;;12.80;7.78;;;12.30;99.90;;;;;;5013530;28;20046;-87
2021/10/27 01:04:32;;;;;;;12.25;7.60;;;12.30;99.90;;;;;;5014119;28;20109;-86
2021/10/27 01:06:59;;;;;;;20.02;7.82;;;12.30;99.90;;;;;;5023362;28;20465;-86
2021/10/27 01:09:25;;;;;;;13.35;7.30;;;12.30;99.90;;;;;;5013365;28;20462;-86
2021/10/27 01:11:51;;;;;;;13.10;7.28;;;12.20;99.90;;;;;;5013616;28;20045;-87
2021/10/27 01:14:17;;;;;;;11.85;7.30;;;12.20;99.90;;;;;;5013377;28;20449;-86
2021/10/27 01:16:45;;;;;;;15.25;7.35;;;12.20;99.90;;;;;;5014660;28;20054;-86
2021/10/27 01:19:10;;;;;;;14.27;7.85;;;12.20;99.90;;;;;;5015597;28;20030;-86
2021/10/27 01:21:40;;;;;;;14.27;7.90;;;12.10;99.90;;;;;;5014327;28;20050;-86
2021/10/27 01:24:06;;;;;;;13.43;7.88;;;12.20;99.90;;;;;;5013294;28;20363;-84
2021/10/27 01:26:32;;;;;;;12.68;7.38;;;12.20;99.90;;;;;;5013574;28;20029;-86
2021/10/27 01:28:58;;;;;;;11.40;7.57;;;12.10;99.90;;;;;;5013547;28;20033;-85
2021/10/27 01:31:25;;;;;;;16.35;8.10;;;12.10;99.90;;;;;;5001923;28;20155;-87
2021/10/27 01:33:52;;;;;;;12.25;7.18;;;12.10;99.90;;;;;;4996081;28;20040;-86
2021/10/27 01:36:19;;;;;;;11.73;7.07;;;12.00;99.90;;;;;;5013239;28;20479;-86
2021/10/27 01:38:47;;;;;;;12.43;7.43;;;12.00;99.90;;;;;;5012198;28;20096;-85
2021/10/27 01:41:14;;;;;;;16.17;8.68;;;12.00;99.90;;;;;;5019668;28;20044;-85
2021/10/27 01:43:55;;;;;;;12.88;7.68;;;12.00;99.90;;;;;;5012514;28;20042;-86
2021/10/27 01:46:47;;;;;;;11.77;6.95;;;12.00;99.90;;;;;;5012864;28;20030;-87
2021/10/27 01:49:13;;;;;;;13.35;7.25;;;12.10;99.90;;;;;;5008976;28;20041;-86
2021/10/27 01:51:40;;;;;;;14.88;7.68;;;12.20;99.90;;;;;;5012876;28;20386;-85
2021/10/27 01:54:06;;;;;;;15.13;7.82;;;12.30;99.90;;;;;;5012879;28;20034;-86
2021/10/27 01:56:33;;;;;;;12.48;7.45;;;12.30;99.90;;;;;;5023910;28;20037;-86
2021/10/27 01:58:58;;;;;;;15.52;7.88;;;12.30;99.90;;;;;;5013001;28;20088;-86
2021/10/27 02:01:24;;;;;;;16.67;8.07;;;12.30;99.90;;;;;;5013266;28;20022;-86
2021/10/27 02:03:50;;;;;;;10.25;6.95;;;12.30;99.90;;;;;;5022901;28;20034;-87
2021/10/27 02:06:16;;;;;;;11.27;7.25;;;12.40;99.90;;;;;;5024428;28;20122;-86
2021/10/27 02:08:42;;;;;;;10.07;6.95;;;12.40;99.90;;;;;;5013115;28;20038;-86
2021/10/27 02:11:09;;;;;;;13.43;7.40;;;12.40;99.90;;;;;;5024176;28;20021;-86
2021/10/27 02:13:35;;;;;;;12.05;7.07;;;12.50;99.90;;;;;;5013118;28;20022;-86
2021/10/27 02:16:01;;;;;;;12.57;6.80;;;12.50;99.90;;;;;;5012762;28;20033;-86
2021/10/27 02:18:27;;;;;;;12.85;7.47;;;12.50;99.90;;;;;;5012747;28;20030;-86
2021/10/27 02:20:53;;;;;;;13.43;6.47;;;12.50;99.90;;;;;;4994579;28;20062;-84
2021/10/27 02:23:18;;;;;;;8.88;6.43;;;12.50;99.90;;;;;;5012333;28;20073;-86
2021/10/27 02:25:44;;;;;;;9.90;6.38;;;12.60;99.90;;;;;;5012602;28;20497;-83
2021/10/27 02:28:10;;;;;;;11.63;7.07;;;12.50;99.90;;;;;;5018936;28;20101;-86
2021/10/27 02:30:36;;;;;;;11.63;6.55;;;12.50;99.90;;;;;;5013538;28;20384;-86
2021/10/27 02:33:03;;;;;;;12.32;7.07;;;12.50;99.90;;;;;;5018237;28;20045;-81
2021/10/27 02:35:29;;;;;;;13.57;6.03;;;12.40;99.90;;;;;;5020163;28;20022;-86
2021/10/27 02:37:55;;;;;;;11.35;6.43;;;12.40;99.90;;;;;;5013171;28;20069;-86
2021/10/27 02:40:21;;;;;;;14.02;7.38;;;12.30;99.90;;;;;;5012370;28;20089;-86
2021/10/27 02:42:47;;;;;;;13.95;7.45;;;12.30;99.90;;;;;;5013102;28;20477;-86
2021/10/27 02:45:13;;;;;;;9.65;6.90;;;12.40;99.90;;;;;;5012819;28;20061;-85
2021/10/27 02:47:41;;;;;;;12.25;7.30;;;12.40;99.90;;;;;;5012429;28;20092;-86
2021/10/27 02:50:07;;;;;;;12.70;7.20;;;12.50;99.90;;;;;;5025367;28;20034;-86
2021/10/27 02:52:33;;;;;;;15.73;7.63;;;12.40;99.90;;;;;;5018331;28;20026;-86
2021/10/27 02:54:58;;;;;;;14.25;7.28;;;12.40;99.90;;;;;;5016183;28;20037;-86
2021/10/27 02:57:25;;;;;;;14.25;7.40;;;12.40;99.90;;;;;;5014170;28;20097;-86
2021/10/27 02:59:50;;;;;;;13.85;6.80;;;12.40;99.90;;;;;;5015635;28;20022;-85
2021/10/27 03:02:16;;;;;;;11.65;7.60;;;12.50;99.90;;;;;;5015390;28;20044;-86
2021/10/27 03:04:42;;;;;;;11.63;7.07;;;12.50;99.90;;;;;;5015812;28;20030;-86
2021/10/27 03:07:08;;;;;;;19.90;7.22;;;12.50;99.90;;;;;;5015575;28;20030;-86
2021/10/27 03:09:33;;;;;;;11.05;7.35;;;12.50;99.90;;;;;;5015818;28;20474;-85
2021/10/27 03:11:59;;;;;;;13.23;7.53;;;12.50;99.90;;;;;;5015518;28;20033;-85
2021/10/27 03:14:25;;;;;;;13.50;7.95;;;12.50;99.90;;;;;;5019021;28;20095;-82
2021/10/27 03:16:51;;;;;;;11.43;7.70;;;12.50;99.90;;;;;;5019592;28;20505;-87
2021/10/27 03:19:17;;;;;;;15.80;7.75;;;12.50;99.90;;;;;;5000848;28;20053;-82
2021/10/27 03:21:43;;;;;;;26.88;8.32;;;12.50;99.90;;;;;;5019380;28;20077;-86
2021/10/27 03:24:09;;;;;;;12.27;7.95;;;12.40;99.90;;;;;;5009015;28;20106;-85
2021/10/27 03:26:35;;;;;;;12.25;7.82;;;12.40;99.90;;;;;;5014819;28;20025;-85
2021/10/27 03:29:00;;;;;;;18.30;8.25;;;12.40;99.90;;;;;;5014679;28;20395;-84
2021/10/27 03:31:26;;;;;;;13.07;7.63;;;12.40;99.90;;;;;;5016546;28;20030;-86
2021/10/27 03:33:52;;;;;;;13.45;7.78;;;12.50;99.90;;;;;;5015057;28;20524;-81
2021/10/27 03:36:17;;;;;;;15.68;7.78;;;12.60;99.90;;;;;;5027118;28;20037;-84
2021/10/27 03:38:43;;;;;;;18.45;8.35;;;12.70;99.90;;;;;;5014670;28;20026;-86
2021/10/27 03:41:09;;;;;;;17.60;8.38;;;12.80;99.90;;;;;;5014548;28;20084;-85
2021/10/27 03:43:35;;;;;;;16.80;8.27;;;12.90;99.90;;;;;;5014811;28;20089;-85
2021/10/27 03:46:01;;;;;;;11.20;7.47;;;12.90;99.90;;;;;;5015017;28;20058;-86
2021/10/27 03:48:26;;;;;;;13.45;8.32;;;12.90;99.90;;;;;;5014690;28;20041;-85
2021/10/27 03:50:52;;;;;;;14.13;7.60;;;12.90;99.90;;;;;;5028875;28;20029;-83
2021/10/27 03:53:18;;;;;;;11.30;6.57;;;13.00;99.90;;;;;;5015936;28;20069;-86
2021/10/27 03:55:43;;;;;;;12.93;7.88;;;13.00;99.90;;;;;;5016019;28;20053;-86
2021/10/27 03:58:09;;;;;;;11.85;7.68;;;13.00;99.90;;;;;;4996613;28;20033;-85
2021/10/27 04:00:39;;;;;;;16.55;7.60;;;13.00;99.90;;;;;;5018190;28;20486;-85
2021/10/27 04:03:06;;;;;;;14.95;7.55;;;13.10;99.90;;;;;;5018937;28;20104;-86
2021/10/27 04:05:31;;;;;;;11.70;6.80;;;13.00;99.90;;;;;;4990187;28;20061;-84
2021/10/27 04:07:57;;;;;;;14.10;7.82;;;13.10;99.90;;;;;;5013997;28;20034;-84
2021/10/27 04:10:23;;;;;;;13.75;7.45;;;13.00;99.90;;;;;;5002863;28;20038;-85
2021/10/27 04:12:48;;;;;;;14.05;6.95;;;13.00;99.90;;;;;;5021433;28;20046;-86
2021/10/27 04:15:14;;;;;;;15.70;8.10;;;12.90;99.90;;;;;;5014093;28;20109;-85
2021/10/27 04:17:41;;;;;;;11.60;7.60;;;12.80;99.90;;;;;;5014127;28;20041;-85
2021/10/27 04:20:08;;;;;;;13.32;7.82;;;12.70;99.90;;;;;;5015963;28;20042;-85
2021/10/27 04:22:37;;;;;;;10.48;7.07;;;12.60;99.90;;;;;;5013559;28;20045;-84
2021/10/27 04:25:04;;;;;;;15.20;7.85;;;12.60;99.90;;;;;;5026841;28;20034;-84
2021/10/27 04:27:29;;;;;;;16.67;7.85;;;12.50;99.90;;;;;;5013919;28;20517;-85
2021/10/27 04:29:55;;;;;;;15.82;8.00;;;12.50;99.90;;;;;;5014148;28;20038;-84
2021/10/27 04:32:21;;;;;;;11.73;7.15;;;12.50;99.90;;;;;;5013832;28;20080;-85
2021/10/27 04:34:46;;;;;;;10.35;7.28;;;12.50;99.90;;;;;;5013700;28;20104;-85
2021/10/27 04:37:13;;;;;;;11.73;7.38;;;12.40;99.90;;;;;;5005526;28;20030;-86
2021/10/27 04:39:38;;;;;;;17.25;7.72;;;12.50;99.90;;;;;;5013951;28;20026;-85
2021/10/27 04:42:04;;;;;;;12.32;7.00;;;12.40;99.90;;;;;;5021179;28;20379;-86
2021/10/27 04:44:30;;;;;;;12.77;7.28;;;12.40;99.90;;;;;;5014359;28;20083;-83
2021/10/27 04:46:57;;;;;;;14.70;6.93;;;12.40;99.90;;;;;;5013600;28;20493;-85
2021/10/27 04:49:23;;;;;;;10.77;6.85;;;12.40;99.90;;;;;;5012928;28;20483;-88
2021/10/27 04:51:49;;;;;;;17.02;6.97;;;12.40;99.90;;;;;;5012763;28;20044;-87
2021/10/27 04:54:15;;;;;;;11.32;6.80;;;12.30;99.90;;;;;;5013732;28;20025;-87
2021/10/27 04:56:41;;;;;;;18.38;8.00;;;12.40;99.90;;;;;;5013921;28;20038;-86
2021/10/27 04:59:07;;;;;;;25.17;7.47;;;12.40;99.90;;;;;;5016565;28;20026;-80
2021/10/27 05:01:32;;;;;;;15.13;7.43;;;12.40;99.90;;;;;;5020416;28;20060;-87
2021/10/27 05:03:58;;;;;;;12.07;7.40;;;12.40;99.90;;;;;;5013576;28;20046;-88
2021/10/27 05:06:24;;;;;;;15.15;7.20;;;12.40;99.90;;;;;;5013840;28;20045;-89
2021/10/27 05:08:50;;;;;;;14.45;8.25;;;12.40;99.90;;;;;;5013482;28;20466;-83
2021/10/27 05:11:16;;;;;;;19.00;7.15;;;12.40;99.90;;;;;;5007535;28;20121;-87
2021/10/27 05:13:44;;;;;;;15.98;7.75;;;12.40;99.90;;;;;;5012837;28;20541;-81
2021/10/27 05:16:10;;;;;;;12.75;7.18;;;12.50;99.90;;;;;;5014196;28;20034;-89
2021/10/27 05:18:36;;;;;;;12.20;7.57;;;12.50;99.90;;;;;;5013764;28;20026;-89
2021/10/27 05:21:02;;;;;;;12.50;7.57;;;12.60;99.90;;;;;;5013547;28;20052;-83
2021/10/27 05:23:27;;;;;;;12.70;6.72;;;12.60;99.90;;;;;;5013582;28;20038;-87
2021/10/27 05:25:53;;;;;;;14.07;7.68;;;12.70;99.90;;;;;;5013330;28;20021;-86
2021/10/27 05:28:18;;;;;;;15.95;8.00;;;12.90;99.90;;;;;;5015941;28;20038;-80
2021/10/27 05:30:46;;;;;;;12.05;7.72;;;12.90;99.90;;;;;;5020107;28;20064;-84
2021/10/27 05:33:11;;;;;;;21.58;9.15;;;13.00;99.90;;;;;;5029773;28;20045;-86
2021/10/27 05:35:37;;;;;;;13.25;8.07;;;13.00;99.90;;;;;;5023428;28;20034;-80
2021/10/27 05:38:03;;;;;;;11.98;8.15;;;13.00;99.90;;;;;;5015369;28;20034;-77
2021/10/27 05:40:29;;;;;;;33.00;7.80;;;13.10;99.90;;;;;;5012532;28;20084;-77
2021/10/27 05:42:55;;;;;;;16.88;8.90;;;13.10;99.90;;;;;;5012508;28;20103;-82
2021/10/27 05:45:27;;;;;;;14.75;8.48;;;13.10;99.90;;;;;;5014303;28;21056;-75
2021/10/27 05:47:57;;;;;;;18.77;9.13;;;13.10;99.90;;;;;;5012429;28;20045;-86
2021/10/27 05:50:30;;;;;;;15.98;8.93;;;13.10;99.90;;;;;;5012672;28;20061;-83
2021/10/27 05:55:41;;;;;;;23.98;9.25;;;13.10;99.90;;;;;;5013599;28;20044;-85
2021/10/27 05:58:09;;;;;;;19.70;9.00;;;13.20;99.90;;;;;;5012750;28;20034;-84
2021/10/27 06:00:35;;;;;;;29.90;10.10;;;13.20;99.90;;;;;;5021166;28;20040;-82
2021/10/27 06:03:02;;;;;;;17.85;9.43;;;13.20;99.90;;;;;;5012654;28;20037;-90
2021/10/27 06:05:28;;;;;;;18.95;9.77;;;13.20;99.90;;;;;;5015146;28;20034;-89
2021/10/27 06:07:54;;;;;;;17.38;8.80;;;13.40;99.90;;;;;;5013487;28;20034;-74
2021/10/27 06:10:21;;;;;;;23.77;10.40;;;13.50;99.90;;;;;;5013459;28;20164;-83
2021/10/27 06:12:49;;;;;;;21.88;10.07;;;13.70;99.90;;;;;;5013767;28;20030;-84
2021/10/27 06:15:17;;;;;;;20.73;10.15;;;13.70;99.90;;;;;;5002239;28;20459;-81
2021/10/27 06:17:43;;;;;;;16.85;9.55;;;13.90;99.90;;;;;;5012993;28;20030;-89
2021/10/27 06:20:09;;;;;;;13.15;8.88;;;14.20;99.90;;;;;;5012912;28;20049;-87
2021/10/27 06:22:35;;;;;;;15.52;8.02;;;14.50;99.90;;;;;;5013175;28;20045;-90
2021/10/27 06:25:01;;;;;;;11.75;8.07;;;15.00;99.90;;;;;;5024606;28;20030;-90
2021/10/27 06:27:27;;;;;;;17.95;8.00;;;15.70;99.90;;;;;;5016821;28;20066;-91
2021/10/27 06:35:15;;;;;;;14.73;8.10;;;17.40;99.90;;;;;;5016982;28;20037;-86
2021/10/27 06:48:27;;;;;;;18.27;7.90;;;19.60;98.50;;;;;;4999950;28;20042;-77
2021/10/27 06:50:53;;;;;;;11.65;6.60;;;20.00;97.70;;;;;;5019371;28;20054;-85
2021/10/27 06:53:19;;;;;;;11.38;6.60;;;20.20;97.40;;;;;;5016491;28;20066;-86
2021/10/27 06:55:46;;;;;;;12.00;7.18;;;20.40;97.30;;;;;;5019379;28;20107;-89
2021/10/27 06:58:14;;;;;;;14.10;6.88;;;20.80;96.70;;;;;;5016144;28;20042;-89
2021/10/27 07:00:47;;;;;;;16.10;6.90;;;21.30;96.40;;;;;;5016116;28;20034;-88
2021/10/27 07:03:37;;;;;;;10.25;6.45;;;21.70;95.70;;;;;;5016255;28;20050;-90
2021/10/27 07:17:15;;;;;;;10.45;6.10;;;22.20;94.00;;;;;;5021317;28;20037;-87
2021/10/27 07:19:41;;;;;;;13.93;6.47;;;22.20;93.80;;;;;;5015742;28;20037;-89
2021/10/27 07:22:07;;;;;;;12.65;6.93;;;22.30;93.90;;;;;;5015703;28;20042;-85
2021/10/27 07:24:33;;;;;;;11.73;6.82;;;22.50;93.30;;;;;;5017562;28;20135;-77
2021/10/27 07:27:04;;;;;;;16.17;6.20;;;22.30;93.60;;;;;;5023567;28;20029;-89
2021/10/27 07:29:29;;;;;;;10.32;6.15;;;22.30;93.80;;;;;;5015280;28;20390;-88
2021/10/27 07:31:56;;;;;;;12.48;5.65;;;22.20;94.00;;;;;;5018431;28;20028;-86
2021/10/27 07:34:30;;;;;;;10.40;6.35;;;22.20;94.10;;;;;;5023104;28;20033;-86
2021/10/27 07:40:00;;;;;;;16.40;6.40;;;21.80;94.20;;;;;;5025940;28;20064;-83
2021/10/27 07:42:27;;;;;;;13.05;5.13;;;21.90;94.20;;;;;;5012375;28;20046;-77
2021/10/27 07:44:52;;;;;;;10.50;5.25;;;22.20;93.90;;;;;;5011784;28;20045;-84
2021/10/27 07:47:19;;;;;;;9.43;5.47;;;22.00;94.10;;;;;;4997322;28;20446;-82
2021/10/27 07:49:45;;;;;;;8.02;5.30;;;21.90;94.10;;;;;;5014439;28;20034;-85
2021/10/27 07:52:11;;;;;;;14.13;5.32;;;21.90;93.80;;;;;;5014310;28;20032;-81
2021/10/27 07:54:38;;;;;;;8.45;5.68;;;21.60;93.90;;;;;;5014649;28;20113;-81
2021/10/27 07:57:04;;;;;;;12.02;6.03;;;21.30;94.40;;;;;;5004582;28;20062;-85
2021/10/27 07:59:31;;;;;;;9.90;5.85;;;21.00;94.80;;;;;;4996459;28;20033;-85
2021/10/27 08:01:59;;;;;;;10.70;5.88;;;20.80;94.80;;;;;;5014271;28;20022;-84
2021/10/27 08:04:24;;;;;;;14.40;5.93;;;20.40;95.20;;;;;;4991641;28;20042;-86
2021/10/27 08:06:50;;;;;;;7.78;5.68;;;20.30;95.90;;;;;;5025944;28;20030;-76
2021/10/27 08:09:17;;;;;;;7.88;5.47;;;20.60;96.10;;;;;;5016321;28;21078;-82
2021/10/27 08:11:43;;;;;;;23.20;6.85;;;21.10;95.10;;;;;;5016695;28;20026;-76
2021/10/27 08:14:09;;;;;;;6.57;4.85;;;21.40;95.00;;;;;;5024237;28;20045;-81
2021/10/27 08:16:35;;;;;;;11.35;5.97;;;21.50;94.70;;;;;;4998825;28;20120;-84
2021/10/27 08:19:01;;;;;;;12.50;5.43;;;21.90;94.30;;;;;;5011146;28;20390;-79
2021/10/27 08:21:27;;;;;;;6.95;5.22;;;22.30;94.00;;;;;;5024103;28;20050;-75
2021/10/27 08:23:54;;;;;;;9.93;5.75;;;22.60;93.40;;;;;;5023590;28;20496;-80
2021/10/27 08:26:24;;;;;;;10.95;5.50;;;22.70;93.10;;;;;;5009028;28;20034;-79
2021/10/27 08:28:56;;;;;;;20.23;5.70;;;22.80;93.20;;;;;;5024601;28;20030;-79
2021/10/27 08:31:34;;;;;;;14.52;6.00;;;23.10;93.10;;;;;;5024705;28;20039;-77
2021/10/27 08:36:26;;;;;;;10.27;6.15;;;23.30;92.50;;;;;;5029768;28;20513;-79
2021/10/27 08:38:53;;;;;;;10.35;6.18;;;23.90;91.80;;;;;;5022392;28;20064;-83
2021/10/27 08:41:19;;;;;;;11.45;5.88;;;23.80;92.00;;;;;;5024340;28;20112;-81
2021/10/27 08:43:45;;;;;;;14.40;6.22;;;24.20;91.60;;;;;;5024053;28;20116;-82
2021/10/27 08:46:16;;;;;;;20.48;5.15;;;24.70;90.90;;;;;;5027521;28;20032;-79
2021/10/27 08:48:49;;;;;;;13.40;5.63;;;24.40;90.70;;;;;;5019938;28;20035;-82
2021/10/27 08:51:15;;;;;;;10.45;5.88;;;24.50;90.90;;;;;;5026094;28;20105;-80
2021/10/27 08:53:41;;;;;;;17.85;6.35;;;25.10;90.60;;;;;;5016293;28;20059;-76
2021/10/27 08:56:09;;;;;;;38.47;6.18;;;26.10;89.60;;;;;;5009151;28;20025;-79
2021/10/27 08:58:46;;;;;;;13.15;5.35;;;26.30;87.60;;;;;;5023726;28;20034;-78
2021/10/27 09:06:48;;;;;;;7.47;4.68;;;26.40;86.20;;;;;;5025552;28;20026;-78
2021/10/27 09:15:28;;;;;;;7.47;3.45;;;27.40;83.00;;;;;;5021426;28;20049;-80
2021/10/27 09:47:41;;;;;;;6.72;3.92;;;30.10;76.60;;;;;;4990892;28;20026;-78
2021/10/27 10:04:28;;;;;;;20.67;3.65;;;35.60;64.00;;;;;;5026494;28;20065;-79
2021/10/27 10:06:58;;;;;;;13.90;3.10;;;35.40;63.60;;;;;;5020509;28;20085;-77
2021/10/27 10:09:26;;;;;;;11.57;3.65;;;34.90;64.00;;;;;;5025892;28;20034;-77
2021/10/27 10:11:54;;;;;;;5.47;3.00;;;35.40;62.60;;;;;;5016395;28;20100;-77
2021/10/27 10:14:20;;;;;;;27.77;3.78;;;36.30;62.30;;;;;;5017583;28;20042;-81
2021/10/27 10:16:52;;;;;;;9.13;3.10;;;37.10;61.30;;;;;;5026795;28;20036;-79
2021/10/27 10:19:23;;;;;;;26.05;3.97;;;37.30;59.70;;;;;;5027013;28;20022;-77
2021/10/27 10:21:54;;;;;;;4.45;2.70;;;36.40;60.40;;;;;;5025109;28;20095;-77
2021/10/27 10:24:23;;;;;;;4.60;2.88;;;34.70;61.00;;;;;;5023688;28;20029;-77
2021/10/27 10:26:49;;;;;;;3.92;2.20;;;32.70;63.40;;;;;;5025454;28;20388;-78
2021/10/27 10:34:52;;;;;;;4.30;2.28;;;26.50;71.80;;;;;;5022635;28;20073;-77
2021/10/27 10:37:41;;;;;;;5.35;1.95;;;25.60;74.30;;;;;;5011642;28;20121;-76
2021/10/27 10:40:28;;;;;;;6.97;2.00;;;25.00;75.50;;;;;;5029609;28;20041;-77
2021/10/27 10:43:16;;;;;;;4.53;2.25;;;24.20;76.70;;;;;;5014351;28;20121;-77
2021/10/27 11:00:49;;;;;;;6.53;2.38;;;20.70;84.40;;;;;;4953237;28;20078;-79
2021/10/27 11:40:10;;;;;;;5.57;2.40;;;20.50;86.10;;;;;;5014758;28;20017;-79
2021/10/27 11:42:47;;;;;;;5.15;2.17;;;20.50;85.60;;;;;;5014894;28;20076;-79
2021/10/27 11:48:01;;;;;;;3.63;2.22;;;20.00;87.70;;;;;;5018888;28;20029;-82
2021/10/27 11:50:35;;;;;;;6.32;2.88;;;19.90;87.60;;;;;;5014157;28;20391;-77
2021/10/27 11:53:05;;;;;;;8.85;3.38;;;19.90;87.80;;;;;;5013856;28;20029;-78
2021/10/27 11:55:32;;;;;;;10.75;2.78;;;20.00;88.20;;;;;;5014681;28;20041;-78
2021/10/27 11:57:58;;;;;;;5.65;3.10;;;19.90;89.30;;;;;;5024804;28;20026;-81
2021/10/27 12:00:36;;;;;;;8.75;2.75;;;20.00;89.40;;;;;;5013966;28;20053;-79
2021/10/27 12:05:48;;;;;;;8.25;3.20;;;20.20;89.80;;;;;;5030121;28;20029;-81
2021/10/27 12:08:41;;;;;;;7.20;2.45;;;20.30;89.40;;;;;;5027435;28;20111;-76
2021/10/27 12:19:07;;;;;;;9.05;2.90;;;20.10;88.80;;;;;;5004196;28;20041;-81
2021/10/27 12:21:36;;;;;;;4.70;2.38;;;20.10;89.10;;;;;;4995159;28;20053;-81
2021/10/27 12:24:03;;;;;;;5.95;2.65;;;20.10;89.10;;;;;;5013600;28;20030;-76
2021/10/27 12:26:48;;;;;;;6.75;2.95;;;20.10;89.40;;;;;;5012977;28;20030;-77
2021/10/27 12:29:26;;;;;;;1.80;1.48;;;20.10;88.90;;;;;;5005002;28;20105;-81
2021/10/27 12:32:15;;;;;;;2.33;1.60;;;20.10;88.80;;;;;;5013040;28;20021;-79
2021/10/27 12:34:57;;;;;;;4.78;1.95;;;20.10;88.60;;;;;;5013568;28;20057;-75
2021/10/27 12:40:23;;;;;;;5.93;2.03;;;19.90;88.10;;;;;;5012300;28;20038;-79
2021/10/27 12:43:11;;;;;;;3.67;1.65;;;19.80;88.40;;;;;;5003693;28;20045;-78
2021/10/27 12:45:44;;;;;;;2.97;1.50;;;19.80;88.00;;;;;;5012158;28;20502;-77
2021/10/27 12:48:20;;;;;;;3.97;1.75;;;19.70;88.20;;;;;;5012460;28;20467;-78
2021/10/27 12:50:57;;;;;;;2.40;1.45;;;19.70;88.00;;;;;;5011957;28;20040;-78
2021/10/27 12:53:33;;;;;;;4.13;1.63;;;19.60;88.30;;;;;;4991278;28;20084;-76
2021/10/27 12:56:17;;;;;;;2.15;1.70;;;19.60;88.40;;;;;;5008438;28;20555;-77
2021/10/27 12:58:51;;;;;;;3.25;1.73;;;19.60;88.70;;;;;;4994591;28;20068;-77
2021/10/27 13:32:17;;;;;;;10.57;1.83;;;19.20;89.40;;;;;;5011206;28;20033;-77
2021/10/27 13:34:43;;;;;;;3.85;2.00;;;19.20;89.60;;;;;;5005488;28;20034;-72
2021/10/27 13:37:09;;;;;;;5.47;2.20;;;19.10;89.20;;;;;;5011255;28;20030;-81
2021/10/27 13:39:36;;;;;;;8.15;2.08;;;19.10;89.90;;;;;;4994201;28;20107;-77
2021/10/27 13:42:11;;;;;;;2.67;1.95;;;19.10;90.30;;;;;;5013063;28;20056;-76
2021/10/27 13:44:55;;;;;;;5.85;1.75;;;19.20;89.10;;;;;;5011428;28;20057;-77
2021/10/27 13:58:36;;;;;;;2.15;1.88;;;19.10;90.10;;;;;;5011510;28;20394;-79
2021/10/27 14:09:54;;;;;;;3.35;1.77;;;19.00;90.20;;;;;;5011490;28;20029;-77
2021/10/27 14:12:04;;;;;;;5.15;1.80;;;19.10;90.30;;;;;;4997302;28;20046;-78
2021/10/27 14:14:39;;;;;;;4.78;1.65;;;19.10;90.00;;;;;;5010700;28;20041;-79
2021/10/27 14:23:11;;;;;;;6.47;1.75;;;19.10;90.10;;;;;;5011184;28;20032;-77
2021/10/27 15:31:10;;;;;;;5.65;2.38;;;17.90;91.40;;;;;;5026706;28;20044;-77
2021/10/27 15:32:51;;;;;;;4.75;2.20;;;17.80;91.40;;;;;;5005626;28;20092;-77
2021/10/27 15:35:30;;;;;;;3.75;1.67;;;17.70;91.50;;;;;;5026919;28;20021;-77
2021/10/27 15:51:44;;;;;;;4.68;2.75;;;17.30;92.60;;;;;;5025148;28;20453;-77
2021/10/27 15:54:13;;;;;;;3.55;2.42;;;17.30;92.50;;;;;;5031331;28;20034;-77
2021/10/27 15:56:39;;;;;;;7.85;3.30;;;17.20;92.60;;;;;;5029252;28;20085;-76
2021/10/27 15:59:05;;;;;;;4.95;2.40;;;17.10;92.80;;;;;;5027098;28;20080;-76
2021/10/27 16:01:31;;;;;;;5.57;3.40;;;17.10;93.00;;;;;;5030745;28;20207;-77
2021/10/27 16:03:57;;;;;;;4.50;3.30;;;17.00;93.10;;;;;;5029055;28;20128;-76
2021/10/27 16:06:24;;;;;;;5.63;3.08;;;17.00;93.30;;;;;;5025864;28;20076;-75
2021/10/27 16:08:54;;;;;;;7.68;3.05;;;16.90;93.40;;;;;;5027211;28;20030;-76
2021/10/27 16:11:20;;;;;;;6.45;3.63;;;16.90;93.60;;;;;;4984115;28;20517;-76
2021/10/27 16:13:46;;;;;;;4.57;3.13;;;16.90;93.70;;;;;;5030370;28;20034;-76
2021/10/27 16:16:14;;;;;;;4.65;3.38;;;16.80;93.80;;;;;;5027277;28;20029;-76
2021/10/27 16:18:40;;;;;;;7.53;4.55;;;16.80;93.80;;;;;;5027814;28;20026;-76
2021/10/27 16:21:06;;;;;;;4.97;2.90;;;16.70;94.00;;;;;;5028170;28;20041;-76
2021/10/27 16:23:32;;;;;;;10.38;3.22;;;16.70;94.10;;;;;;5026262;28;20053;-77
2021/10/27 16:26:00;;;;;;;9.77;3.67;;;16.60;94.20;;;;;;5026041;28;20108;-77
2021/10/27 16:28:26;;;;;;;6.35;3.30;;;16.60;94.30;;;;;;5003761;28;20038;-77
2021/10/27 16:30:53;;;;;;;9.27;4.88;;;16.50;94.40;;;;;;5025468;28;20021;-75
2021/10/27 16:33:23;;;;;;;7.50;3.60;;;16.50;94.60;;;;;;5027214;28;20029;-76
2021/10/27 16:35:51;;;;;;;7.35;4.05;;;16.40;94.70;;;;;;5022317;28;20021;-74
2021/10/27 16:38:17;;;;;;;8.52;4.63;;;16.30;94.90;;;;;;5017347;28;20026;-75
2021/10/27 16:40:43;;;;;;;19.35;4.85;;;16.30;95.00;;;;;;5020989;28;20030;-75
2021/10/27 16:43:09;;;;;;;11.15;4.18;;;16.30;95.20;;;;;;5017041;28;20037;-73
2021/10/27 16:45:34;;;;;;;11.73;3.83;;;16.20;95.30;;;;;;5001924;28;20397;-77
2021/10/27 16:48:01;;;;;;;7.75;3.80;;;16.20;95.40;;;;;;4998092;28;20395;-76
2021/10/27 16:50:27;;;;;;;7.50;4.55;;;16.10;95.40;;;;;;4997919;28;20096;-77
2021/10/27 16:52:56;;;;;;;12.25;4.35;;;16.10;95.60;;;;;;5027122;28;20469;-75
2021/10/27 16:55:22;;;;;;;8.50;4.30;;;16.10;95.70;;;;;;4999413;28;20486;-77
2021/10/27 16:57:51;;;;;;;9.15;3.78;;;16.00;95.90;;;;;;5024024;28;20033;-75
2021/10/27 17:00:19;;;;;;;5.40;3.63;;;16.00;95.90;;;;;;5027027;28;20029;-75
2021/10/27 17:02:46;;;;;;;10.00;4.10;;;16.00;96.00;;;;;;5018194;28;20030;-74
2021/10/27 17:05:12;;;;;;;11.05;4.13;;;15.90;96.10;;;;;;5012285;28;20470;-77
2021/10/27 17:07:38;;;;;;;7.10;3.85;;;15.90;96.10;;;;;;5016750;28;20048;-76
2021/10/27 17:10:06;;;;;;;9.65;4.10;;;15.80;96.20;;;;;;5020700;28;20033;-80
2021/10/27 17:12:33;;;;;;;7.03;4.63;;;15.80;96.30;;;;;;5021111;28;20319;-81
2021/10/27 17:14:59;;;;;;;7.25;4.20;;;15.80;96.30;;;;;;5001586;28;20470;-83
2021/10/27 17:17:25;;;;;;;8.52;4.32;;;15.80;96.40;;;;;;5012024;28;20470;-80
2021/10/27 17:19:51;;;;;;;6.47;4.38;;;15.80;96.60;;;;;;5011673;28;20053;-80
2021/10/27 17:22:22;;;;;;;5.13;3.42;;;15.70;96.70;;;;;;5010596;28;20033;-77
2021/10/27 17:24:48;;;;;;;6.55;4.30;;;15.70;96.70;;;;;;4998185;28;20033;-75
2021/10/27 17:27:14;;;;;;;9.45;4.80;;;15.70;96.70;;;;;;5022658;28;20032;-76
2021/10/27 17:29:39;;;;;;;7.38;4.57;;;15.70;96.90;;;;;;5023414;28;20025;-79
2021/10/27 17:32:05;;;;;;;10.02;4.38;;;15.60;96.90;;;;;;5026112;28;20555;-75
2021/10/27 17:34:33;;;;;;;5.97;4.07;;;15.60;96.90;;;;;;5017733;28;20176;-74
2021/10/27 17:36:59;;;;;;;8.98;4.90;;;15.60;96.80;;;;;;5011877;28;20470;-75
2021/10/27 17:39:26;;;;;;;13.75;5.07;;;15.60;96.80;;;;;;5025447;28;20120;-73
2021/10/27 17:41:52;;;;;;;7.15;4.75;;;15.60;96.80;;;;;;5027323;28;20088;-74
2021/10/27 17:44:18;;;;;;;13.63;5.10;;;15.70;96.80;;;;;;5022492;28;20042;-73